sensor_id;sensor_type;location;lat;lon;timestamp;pressure;altitude;pressure_sealevel;temperature;humidity
15308;BME280;7755;52.208;6.964;2023-06-22T00:02:15;101525.59;;;21.36;87.80
15308;BME280;7755;52.208;6.964;2023-06-22T00:06:19;101521.75;;;21.32;88.24
15308;BME280;7755;52.208;6.964;2023-06-22T00:10:22;101515.44;;;21.26;88.58
15308;BME280;7755;52.208;6.964;2023-06-22T00:14:25;101514.38;;;21.22;88.72
15308;BME280;7755;52.208;6.964;2023-06-22T00:18:28;101504.72;;;21.20;88.75
15308;BME280;7755;52.208;6.964;2023-06-22T00:22:33;101513.59;;;21.17;89.03
15308;BME280;7755;52.208;6.964;2023-06-22T00:26:40;101508.41;;;21.10;89.54
15308;BME280;7755;52.208;6.964;2023-06-22T00:30:44;101500.97;;;21.06;90.10
15308;BME280;7755;52.208;6.964;2023-06-22T00:34:47;101510.16;;;21.01;90.06
15308;BME280;7755;52.208;6.964;2023-06-22T00:38:51;101496.69;;;20.94;90.99
15308;BME280;7755;52.208;6.964;2023-06-22T00:42:54;101494.56;;;20.86;91.65
15308;BME280;7755;52.208;6.964;2023-06-22T00:46:59;101486.81;;;20.83;91.74
15308;BME280;7755;52.208;6.964;2023-06-22T00:51:05;101476.63;;;20.79;91.96
15308;BME280;7755;52.208;6.964;2023-06-22T00:55:09;101489.97;;;20.71;92.70
15308;BME280;7755;52.208;6.964;2023-06-22T00:59:12;101490.28;;;20.65;93.34
15308;BME280;7755;52.208;6.964;2023-06-22T01:03:19;101485.66;;;20.60;93.63
15308;BME280;7755;52.208;6.964;2023-06-22T01:07:30;101488.69;;;20.59;93.71
15308;BME280;7755;52.208;6.964;2023-06-22T01:11:41;101499.78;;;20.54;94.16
15308;BME280;7755;52.208;6.964;2023-06-22T01:15:51;101484.59;;;20.51;94.41
15308;BME280;7755;52.208;6.964;2023-06-22T01:19:56;101494.84;;;20.45;95.30
15308;BME280;7755;52.208;6.964;2023-06-22T01:24:10;101485.78;;;20.40;95.86
15308;BME280;7755;52.208;6.964;2023-06-22T01:32:47;101471.72;;;20.31;96.60
15308;BME280;7755;52.208;6.964;2023-06-22T01:36:51;101476.19;;;20.27;96.94
15308;BME280;7755;52.208;6.964;2023-06-22T01:40:57;101473.16;;;20.24;97.47
15308;BME280;7755;52.208;6.964;2023-06-22T01:45:00;101473.47;;;20.22;97.76
15308;BME280;7755;52.208;6.964;2023-06-22T01:49:06;101477.06;;;20.17;97.93
15308;BME280;7755;52.208;6.964;2023-06-22T01:53:10;101468.28;;;20.10;98.51
15308;BME280;7755;52.208;6.964;2023-06-22T01:57:14;101474.91;;;20.09;98.88
15308;BME280;7755;52.208;6.964;2023-06-22T02:01:23;101477.44;;;20.06;99.39
15308;BME280;7755;52.208;6.964;2023-06-22T02:05:31;101478.84;;;19.98;100.00
15308;BME280;7755;52.208;6.964;2023-06-22T02:09:38;101467.53;;;20.00;100.00
15308;BME280;7755;52.208;6.964;2023-06-22T02:13:44;101466.97;;;19.98;100.00
15308;BME280;7755;52.208;6.964;2023-06-22T02:17:48;101469.75;;;19.98;100.00
15308;BME280;7755;52.208;6.964;2023-06-22T02:21:52;101465.88;;;19.99;100.00
15308;BME280;7755;52.208;6.964;2023-06-22T02:25:55;101473.31;;;19.98;100.00
15308;BME280;7755;52.208;6.964;2023-06-22T02:29:58;101472.25;;;19.99;100.00
15308;BME280;7755;52.208;6.964;2023-06-22T02:34:01;101466.16;;;19.97;100.00
15308;BME280;7755;52.208;6.964;2023-06-22T02:38:08;101468.66;;;19.94;100.00
15308;BME280;7755;52.208;6.964;2023-06-22T02:42:10;101459.00;;;19.91;100.00
15308;BME280;7755;52.208;6.964;2023-06-22T02:46:16;101464.00;;;19.89;100.00
15308;BME280;7755;52.208;6.964;2023-06-22T02:50:19;101462.34;;;19.88;100.00
15308;BME280;7755;52.208;6.964;2023-06-22T02:54:24;101460.19;;;19.85;100.00
15308;BME280;7755;52.208;6.964;2023-06-22T02:58:28;101463.47;;;19.82;100.00
15308;BME280;7755;52.208;6.964;2023-06-22T03:02:31;101462.66;;;19.81;100.00
15308;BME280;7755;52.208;6.964;2023-06-22T03:06:34;101454.97;;;19.78;100.00
15308;BME280;7755;52.208;6.964;2023-06-22T03:10:39;101457.97;;;19.77;100.00
15308;BME280;7755;52.208;6.964;2023-06-22T03:14:42;101461.63;;;19.72;100.00
15308;BME280;7755;52.208;6.964;2023-06-22T03:18:45;101468.25;;;19.71;100.00
15308;BME280;7755;52.208;6.964;2023-06-22T03:22:48;101467.97;;;19.73;100.00
15308;BME280;7755;52.208;6.964;2023-06-22T03:26:52;101453.34;;;19.72;100.00
15308;BME280;7755;52.208;6.964;2023-06-22T03:30:57;101445.06;;;19.72;100.00
15308;BME280;7755;52.208;6.964;2023-06-22T03:35:00;101458.03;;;19.72;100.00
15308;BME280;7755;52.208;6.964;2023-06-22T03:39:05;101465.75;;;19.70;100.00
15308;BME280;7755;52.208;6.964;2023-06-22T03:43:09;101457.22;;;19.66;100.00
15308;BME280;7755;52.208;6.964;2023-06-22T03:47:12;101456.13;;;19.62;100.00
15308;BME280;7755;52.208;6.964;2023-06-22T03:51:15;101457.53;;;19.59;100.00
15308;BME280;7755;52.208;6.964;2023-06-22T03:55:19;101453.66;;;19.60;100.00
15308;BME280;7755;52.208;6.964;2023-06-22T03:59:23;101456.13;;;19.62;100.00
15308;BME280;7755;52.208;6.964;2023-06-22T04:03:27;101455.56;;;19.65;100.00
15308;BME280;7755;52.208;6.964;2023-06-22T04:07:30;101434.88;;;19.68;100.00
15308;BME280;7755;52.208;6.964;2023-06-22T04:11:33;101441.78;;;19.65;100.00
15308;BME280;7755;52.208;6.964;2023-06-22T04:15:37;101440.38;;;19.68;100.00
15308;BME280;7755;52.208;6.964;2023-06-22T04:19:40;101443.13;;;19.73;100.00
15308;BME280;7755;52.208;6.964;2023-06-22T04:23:43;101444.19;;;19.77;100.00
15308;BME280;7755;52.208;6.964;2023-06-22T04:27:47;101448.56;;;19.83;100.00
15308;BME280;7755;52.208;6.964;2023-06-22T04:31:51;101447.72;;;19.87;100.00
15308;BME280;7755;52.208;6.964;2023-06-22T04:35:55;101447.72;;;19.93;100.00
15308;BME280;7755;52.208;6.964;2023-06-22T04:39:59;101439.38;;;19.98;100.00
15308;BME280;7755;52.208;6.964;2023-06-22T04:44:02;101431.34;;;20.01;100.00
15308;BME280;7755;52.208;6.964;2023-06-22T04:48:08;101442.06;;;20.13;100.00
15308;BME280;7755;52.208;6.964;2023-06-22T04:52:12;101434.59;;;20.13;100.00
15308;BME280;7755;52.208;6.964;2023-06-22T04:56:21;101437.34;;;20.13;100.00
15308;BME280;7755;52.208;6.964;2023-06-22T05:00:30;101429.59;;;20.15;100.00
15308;BME280;7755;52.208;6.964;2023-06-22T05:04:34;101429.59;;;20.15;100.00
15308;BME280;7755;52.208;6.964;2023-06-22T05:08:42;101431.78;;;20.18;100.00
15308;BME280;7755;52.208;6.964;2023-06-22T05:12:45;101431.22;;;20.22;100.00
15308;BME280;7755;52.208;6.964;2023-06-22T05:16:49;101430.41;;;20.21;100.00
15308;BME280;7755;52.208;6.964;2023-06-22T05:20:54;101429.88;;;20.19;100.00
15308;BME280;7755;52.208;6.964;2023-06-22T05:24:57;101425.09;;;20.25;100.00
15308;BME280;7755;52.208;6.964;2023-06-22T05:29:02;101430.06;;;20.28;100.00
15308;BME280;7755;52.208;6.964;2023-06-22T05:33:05;101426.22;;;20.24;100.00
15308;BME280;7755;52.208;6.964;2023-06-22T05:37:10;101436.63;;;20.37;100.00
15308;BME280;7755;52.208;6.964;2023-06-22T05:41:14;101433.56;;;20.38;100.00
15308;BME280;7755;52.208;6.964;2023-06-22T05:45:17;101433.22;;;20.50;100.00
15308;BME280;7755;52.208;6.964;2023-06-22T05:49:20;101428.75;;;20.59;100.00
15308;BME280;7755;52.208;6.964;2023-06-22T05:53:25;101431.66;;;20.73;100.00
15308;BME280;7755;52.208;6.964;2023-06-22T05:57:27;101433.19;;;20.84;99.76
15308;BME280;7755;52.208;6.964;2023-06-22T06:01:30;101429.69;;;21.03;98.67
15308;BME280;7755;52.208;6.964;2023-06-22T06:05:37;101434.66;;;21.30;97.43
15308;BME280;7755;52.208;6.964;2023-06-22T06:09:41;101437.84;;;21.61;95.78
15308;BME280;7755;52.208;6.964;2023-06-22T06:13:45;101440.44;;;21.76;93.50
15308;BME280;7755;52.208;6.964;2023-06-22T06:17:49;101442.19;;;21.91;92.51
15308;BME280;7755;52.208;6.964;2023-06-22T06:21:53;101450.53;;;22.10;92.18
15308;BME280;7755;52.208;6.964;2023-06-22T06:25:57;101444.75;;;22.25;91.33
15308;BME280;7755;52.208;6.964;2023-06-22T06:30:00;101436.47;;;22.39;90.64
15308;BME280;7755;52.208;6.964;2023-06-22T06:34:03;101441.06;;;22.62;89.25
15308;BME280;7755;52.208;6.964;2023-06-22T06:38:06;101435.03;;;22.93;86.51
15308;BME280;7755;52.208;6.964;2023-06-22T06:42:10;101426.41;;;23.08;85.86
15308;BME280;7755;52.208;6.964;2023-06-22T06:46:14;101422.09;;;23.29;84.84
15308;BME280;7755;52.208;6.964;2023-06-22T06:50:17;101428.97;;;23.46;83.17
15308;BME280;7755;52.208;6.964;2023-06-22T06:54:20;101435.94;;;23.57;82.49
15308;BME280;7755;52.208;6.964;2023-06-22T06:58:25;101438.03;;;23.65;81.98
15308;BME280;7755;52.208;6.964;2023-06-22T07:02:27;101441.31;;;23.67;81.58
15308;BME280;7755;52.208;6.964;2023-06-22T07:06:30;101440.06;;;23.73;81.31
15308;BME280;7755;52.208;6.964;2023-06-22T07:10:34;101429.88;;;23.82;80.56
15308;BME280;7755;52.208;6.964;2023-06-22T07:14:39;101421.00;;;23.94;79.81
15308;BME280;7755;52.208;6.964;2023-06-22T07:18:42;101419.31;;;24.07;78.24
15308;BME280;7755;52.208;6.964;2023-06-22T07:22:45;101410.53;;;24.13;77.24
15308;BME280;7755;52.208;6.964;2023-06-22T07:26:48;101409.50;;;24.32;76.38
15308;BME280;7755;52.208;6.964;2023-06-22T07:30:52;101395.59;;;24.45;74.73
15308;BME280;7755;52.208;6.964;2023-06-22T07:34:55;101389.56;;;24.52;74.42
15308;BME280;7755;52.208;6.964;2023-06-22T07:38:58;101397.16;;;24.60;74.29
15308;BME280;7755;52.208;6.964;2023-06-22T07:43:01;101396.75;;;24.75;74.25
15308;BME280;7755;52.208;6.964;2023-06-22T07:47:06;101397.06;;;24.74;73.81
15308;BME280;7755;52.208;6.964;2023-06-22T07:51:09;101393.66;;;24.86;72.79
15308;BME280;7755;52.208;6.964;2023-06-22T07:55:14;101397.00;;;24.96;73.05
15308;BME280;7755;52.208;6.964;2023-06-22T07:59:17;101397.06;;;25.05;73.27
15308;BME280;7755;52.208;6.964;2023-06-22T08:03:21;101390.41;;;25.15;72.12
15308;BME280;7755;52.208;6.964;2023-06-22T08:07:24;101382.06;;;25.23;72.37
15308;BME280;7755;52.208;6.964;2023-06-22T08:11:27;101387.50;;;25.37;71.96
15308;BME280;7755;52.208;6.964;2023-06-22T08:15:32;101381.13;;;25.45;72.12
15308;BME280;7755;52.208;6.964;2023-06-22T08:19:36;101380.03;;;25.55;70.71
15308;BME280;7755;52.208;6.964;2023-06-22T08:23:39;101381.66;;;25.65;70.45
15308;BME280;7755;52.208;6.964;2023-06-22T08:27:45;101378.06;;;25.64;69.66
15308;BME280;7755;52.208;6.964;2023-06-22T08:31:48;101380.19;;;25.58;69.25
15308;BME280;7755;52.208;6.964;2023-06-22T08:35:52;101378.88;;;25.65;69.71
15308;BME280;7755;52.208;6.964;2023-06-22T08:39:55;101371.19;;;25.70;69.55
15308;BME280;7755;52.208;6.964;2023-06-22T08:43:58;101368.91;;;25.72;69.53
15308;BME280;7755;52.208;6.964;2023-06-22T08:48:01;101355.50;;;25.74;69.51
15308;BME280;7755;52.208;6.964;2023-06-22T08:52:09;101344.97;;;25.71;68.82
15308;BME280;7755;52.208;6.964;2023-06-22T08:56:11;101336.31;;;25.81;68.48
15308;BME280;7755;52.208;6.964;2023-06-22T09:00:16;101336.97;;;25.87;67.99
15308;BME280;7755;52.208;6.964;2023-06-22T09:04:21;101322.19;;;26.04;68.62
15308;BME280;7755;52.208;6.964;2023-06-22T09:08:26;101312.16;;;26.29;67.36
15308;BME280;7755;52.208;6.964;2023-06-22T09:12:28;101323.22;;;26.63;65.98
15308;BME280;7755;52.208;6.964;2023-06-22T09:16:34;101323.31;;;26.84;64.64
15308;BME280;7755;52.208;6.964;2023-06-22T09:20:37;101313.78;;;26.85;64.14
15308;BME280;7755;52.208;6.964;2023-06-22T09:24:41;101309.25;;;27.02;62.54
15308;BME280;7755;52.208;6.964;2023-06-22T09:28:44;101309.44;;;27.05;62.20
15308;BME280;7755;52.208;6.964;2023-06-22T09:32:47;101304.78;;;27.09;62.06
15308;BME280;7755;52.208;6.964;2023-06-22T09:36:50;101312.78;;;27.19;61.88
15308;BME280;7755;52.208;6.964;2023-06-22T09:40:54;101313.47;;;27.16;60.97
15308;BME280;7755;52.208;6.964;2023-06-22T09:44:57;101311.69;;;27.12;61.47
15308;BME280;7755;52.208;6.964;2023-06-22T09:49:00;101299.16;;;27.18;61.49
15308;BME280;7755;52.208;6.964;2023-06-22T09:53:03;101298.53;;;27.12;61.10
15308;BME280;7755;52.208;6.964;2023-06-22T09:57:08;101304.94;;;27.13;61.22
15308;BME280;7755;52.208;6.964;2023-06-22T10:01:11;101304.75;;;27.18;60.97
15308;BME280;7755;52.208;6.964;2023-06-22T10:05:13;101304.06;;;27.21;61.40
15308;BME280;7755;52.208;6.964;2023-06-22T10:09:17;101295.50;;;27.26;61.39
15308;BME280;7755;52.208;6.964;2023-06-22T10:13:21;101295.31;;;27.31;60.58
15308;BME280;7755;52.208;6.964;2023-06-22T10:17:24;101287.41;;;27.33;61.03
15308;BME280;7755;52.208;6.964;2023-06-22T10:21:27;101289.91;;;27.26;60.52
15308;BME280;7755;52.208;6.964;2023-06-22T10:25:30;101285.13;;;27.27;60.83
15308;BME280;7755;52.208;6.964;2023-06-22T10:29:35;101284.78;;;27.28;60.52
15308;BME280;7755;52.208;6.964;2023-06-22T10:33:38;101279.00;;;27.33;60.72
15308;BME280;7755;52.208;6.964;2023-06-22T10:37:43;101286.38;;;27.38;60.45
15308;BME280;7755;52.208;6.964;2023-06-22T10:41:46;101291.19;;;27.29;60.13
15308;BME280;7755;52.208;6.964;2023-06-22T10:45:50;101290.56;;;27.23;60.61
15308;BME280;7755;52.208;6.964;2023-06-22T10:49:53;101288.34;;;27.16;59.17
15308;BME280;7755;52.208;6.964;2023-06-22T10:53:56;101286.09;;;27.10;59.66
15308;BME280;7755;52.208;6.964;2023-06-22T10:57:59;101285.13;;;27.06;60.14
15308;BME280;7755;52.208;6.964;2023-06-22T11:02:04;101282.00;;;26.99;60.66
15308;BME280;7755;52.208;6.964;2023-06-22T11:06:07;101278.41;;;26.98;61.43
15308;BME280;7755;52.208;6.964;2023-06-22T11:10:10;101266.63;;;26.92;61.22
15308;BME280;7755;52.208;6.964;2023-06-22T11:14:13;101262.84;;;26.88;62.21
15308;BME280;7755;52.208;6.964;2023-06-22T11:18:18;101265.97;;;26.87;62.47
15308;BME280;7755;52.208;6.964;2023-06-22T11:22:21;101250.25;;;26.82;62.44
15308;BME280;7755;52.208;6.964;2023-06-22T11:26:24;101245.88;;;26.73;62.62
15308;BME280;7755;52.208;6.964;2023-06-22T11:30:28;101236.53;;;26.68;63.47
15308;BME280;7755;52.208;6.964;2023-06-22T11:34:33;101229.50;;;26.71;63.18
15308;BME280;7755;52.208;6.964;2023-06-22T11:38:36;101224.91;;;26.66;63.70
15308;BME280;7755;52.208;6.964;2023-06-22T11:42:40;101218.31;;;26.71;64.36
15308;BME280;7755;52.208;6.964;2023-06-22T11:46:43;101219.81;;;26.68;64.29
15308;BME280;7755;52.208;6.964;2023-06-22T11:50:47;101215.38;;;26.67;65.39
15308;BME280;7755;52.208;6.964;2023-06-22T11:54:50;101208.56;;;26.56;65.22
15308;BME280;7755;52.208;6.964;2023-06-22T11:58:53;101211.84;;;26.58;66.27
15308;BME280;7755;52.208;6.964;2023-06-22T12:02:56;101202.50;;;26.54;66.86
15308;BME280;7755;52.208;6.964;2023-06-22T12:07:03;101195.63;;;26.52;67.77
15308;BME280;7755;52.208;6.964;2023-06-22T12:11:06;101201.38;;;26.47;67.69
15308;BME280;7755;52.208;6.964;2023-06-22T12:15:09;101194.72;;;26.30;67.99
15308;BME280;7755;52.208;6.964;2023-06-22T12:19:13;101198.16;;;26.27;68.19
15308;BME280;7755;52.208;6.964;2023-06-22T12:23:17;101200.00;;;26.14;68.25
15308;BME280;7755;52.208;6.964;2023-06-22T12:27:21;101208.75;;;26.04;69.43
15308;BME280;7755;52.208;6.964;2023-06-22T12:31:24;101218.28;;;26.03;69.00
15308;BME280;7755;52.208;6.964;2023-06-22T12:35:29;101222.56;;;25.92;70.48
15308;BME280;7755;52.208;6.964;2023-06-22T12:39:34;101217.31;;;25.91;71.78
15308;BME280;7755;52.208;6.964;2023-06-22T12:43:37;101217.34;;;25.82;74.56
15308;BME280;7755;52.208;6.964;2023-06-22T12:47:40;101210.97;;;25.73;77.61
15308;BME280;7755;52.208;6.964;2023-06-22T12:51:43;101204.59;;;25.55;80.04
15308;BME280;7755;52.208;6.964;2023-06-22T12:55:48;101210.66;;;25.48;81.95
15308;BME280;7755;52.208;6.964;2023-06-22T12:59:51;101208.19;;;25.38;83.48
15308;BME280;7755;52.208;6.964;2023-06-22T13:03:54;101203.78;;;25.28;85.10
15308;BME280;7755;52.208;6.964;2023-06-22T13:07:56;101191.19;;;25.14;87.69
15308;BME280;7755;52.208;6.964;2023-06-22T13:12:01;101185.22;;;24.98;91.24
15308;BME280;7755;52.208;6.964;2023-06-22T13:16:04;101175.25;;;24.80;94.04
15308;BME280;7755;52.208;6.964;2023-06-22T13:20:07;101185.84;;;24.69;97.70
15308;BME280;7755;52.208;6.964;2023-06-22T13:24:11;101183.34;;;24.50;98.52
15308;BME280;7755;52.208;6.964;2023-06-22T13:28:15;101172.19;;;24.41;99.82
15308;BME280;7755;52.208;6.964;2023-06-22T13:32:29;101171.47;;;24.27;100.00
15308;BME280;7755;52.208;6.964;2023-06-22T13:36:32;101170.09;;;24.07;100.00
15308;BME280;7755;52.208;6.964;2023-06-22T13:40:35;101160.50;;;23.91;100.00
15308;BME280;7755;52.208;6.964;2023-06-22T13:44:40;101150.97;;;23.75;100.00
15308;BME280;7755;52.208;6.964;2023-06-22T13:48:43;101119.72;;;23.69;100.00
15308;BME280;7755;52.208;6.964;2023-06-22T13:52:46;101080.50;;;23.62;100.00
15308;BME280;7755;52.208;6.964;2023-06-22T13:56:49;101100.69;;;23.54;100.00
15308;BME280;7755;52.208;6.964;2023-06-22T14:00:53;101114.28;;;23.33;100.00
15308;BME280;7755;52.208;6.964;2023-06-22T14:04:57;101099.13;;;23.16;100.00
15308;BME280;7755;52.208;6.964;2023-06-22T14:09:00;101087.53;;;23.14;100.00
15308;BME280;7755;52.208;6.964;2023-06-22T14:13:04;101081.25;;;23.00;100.00
15308;BME280;7755;52.208;6.964;2023-06-22T14:17:09;101092.53;;;23.04;100.00
15308;BME280;7755;52.208;6.964;2023-06-22T14:21:12;101079.88;;;23.11;100.00
15308;BME280;7755;52.208;6.964;2023-06-22T14:25:15;101077.59;;;23.13;100.00
15308;BME280;7755;52.208;6.964;2023-06-22T14:29:18;101043.03;;;23.20;100.00
15308;BME280;7755;52.208;6.964;2023-06-22T14:33:22;101057.50;;;23.39;100.00
15308;BME280;7755;52.208;6.964;2023-06-22T14:37:25;101066.63;;;23.62;100.00
15308;BME280;7755;52.208;6.964;2023-06-22T14:41:29;101050.25;;;23.60;100.00
15308;BME280;7755;52.208;6.964;2023-06-22T14:45:31;101041.94;;;23.60;100.00
15308;BME280;7755;52.208;6.964;2023-06-22T14:49:36;101031.53;;;23.66;100.00
15308;BME280;7755;52.208;6.964;2023-06-22T14:53:39;101021.25;;;23.66;100.00
15308;BME280;7755;52.208;6.964;2023-06-22T14:57:42;101023.44;;;23.78;100.00
15308;BME280;7755;52.208;6.964;2023-06-22T15:01:45;101018.53;;;23.84;100.00
15308;BME280;7755;52.208;6.964;2023-06-22T15:05:50;101006.13;;;23.90;100.00
15308;BME280;7755;52.208;6.964;2023-06-22T15:09:53;101005.16;;;23.94;100.00
15308;BME280;7755;52.208;6.964;2023-06-22T15:13:58;100984.59;;;24.04;100.00
15308;BME280;7755;52.208;6.964;2023-06-22T15:18:01;100988.53;;;24.20;100.00
15308;BME280;7755;52.208;6.964;2023-06-22T15:22:07;100985.47;;;24.39;100.00
15308;BME280;7755;52.208;6.964;2023-06-22T15:26:10;100982.03;;;24.34;100.00
15308;BME280;7755;52.208;6.964;2023-06-22T15:30:14;100980.38;;;24.33;100.00
15308;BME280;7755;52.208;6.964;2023-06-22T15:34:17;100978.91;;;24.27;100.00
15308;BME280;7755;52.208;6.964;2023-06-22T15:38:21;100982.47;;;24.10;100.00
15308;BME280;7755;52.208;6.964;2023-06-22T15:42:24;100980.84;;;24.00;100.00
15308;BME280;7755;52.208;6.964;2023-06-22T15:46:27;100974.47;;;24.00;100.00
15308;BME280;7755;52.208;6.964;2023-06-22T15:50:30;100948.81;;;24.03;100.00
15308;BME280;7755;52.208;6.964;2023-06-22T15:54:34;100935.91;;;23.98;100.00
15308;BME280;7755;52.208;6.964;2023-06-22T15:58:37;100924.28;;;23.87;100.00
15308;BME280;7755;52.208;6.964;2023-06-22T16:02:41;100925.91;;;23.88;100.00
15308;BME280;7755;52.208;6.964;2023-06-22T16:06:44;100928.03;;;23.83;100.00
15308;BME280;7755;52.208;6.964;2023-06-22T16:10:48;100913.00;;;23.75;100.00
15308;BME280;7755;52.208;6.964;2023-06-22T16:14:51;100916.91;;;23.74;100.00
15308;BME280;7755;52.208;6.964;2023-06-22T16:18:54;100924.09;;;23.66;100.00
15308;BME280;7755;52.208;6.964;2023-06-22T16:22:57;100906.94;;;23.64;100.00
15308;BME280;7755;52.208;6.964;2023-06-22T16:27:01;100885.66;;;23.60;100.00
15308;BME280;7755;52.208;6.964;2023-06-22T16:31:04;100857.38;;;23.49;100.00
15308;BME280;7755;52.208;6.964;2023-06-22T16:35:07;100873.34;;;23.35;100.00
15308;BME280;7755;52.208;6.964;2023-06-22T16:39:10;100875.16;;;23.31;100.00
15308;BME280;7755;52.208;6.964;2023-06-22T16:43:14;100856.84;;;23.21;100.00
15308;BME280;7755;52.208;6.964;2023-06-22T16:47:17;100869.88;;;23.12;100.00
15308;BME280;7755;52.208;6.964;2023-06-22T16:51:20;100887.41;;;22.90;100.00
15308;BME280;7755;52.208;6.964;2023-06-22T16:55:23;100912.44;;;22.85;100.00
15308;BME280;7755;52.208;6.964;2023-06-22T16:59:28;100958.47;;;22.86;100.00
15308;BME280;7755;52.208;6.964;2023-06-22T17:03:33;100992.16;;;22.79;100.00
15308;BME280;7755;52.208;6.964;2023-06-22T17:07:43;101023.47;;;22.80;100.00
15308;BME280;7755;52.208;6.964;2023-06-22T17:11:51;101023.97;;;22.82;100.00
15308;BME280;7755;52.208;6.964;2023-06-22T17:15:59;101024.13;;;22.77;100.00
15308;BME280;7755;52.208;6.964;2023-06-22T17:20:03;101002.88;;;22.72;100.00
15308;BME280;7755;52.208;6.964;2023-06-22T17:24:06;100978.00;;;22.58;100.00
15308;BME280;7755;52.208;6.964;2023-06-22T17:28:09;100977.72;;;22.24;100.00
15308;BME280;7755;52.208;6.964;2023-06-22T17:32:13;100976.94;;;21.96;100.00
15308;BME280;7755;52.208;6.964;2023-06-22T17:36:16;100978.06;;;21.67;100.00
15308;BME280;7755;52.208;6.964;2023-06-22T17:40:20;100969.34;;;21.46;100.00
15308;BME280;7755;52.208;6.964;2023-06-22T17:44:26;100961.69;;;21.30;100.00
15308;BME280;7755;52.208;6.964;2023-06-22T17:48:31;100948.31;;;21.18;100.00
15308;BME280;7755;52.208;6.964;2023-06-22T17:52:34;100940.81;;;21.05;100.00
15308;BME280;7755;52.208;6.964;2023-06-22T17:56:37;100940.41;;;20.97;100.00
15308;BME280;7755;52.208;6.964;2023-06-22T18:00:40;100927.59;;;20.88;100.00
15308;BME280;7755;52.208;6.964;2023-06-22T18:04:46;100913.88;;;20.83;100.00
15308;BME280;7755;52.208;6.964;2023-06-22T18:08:50;100906.28;;;20.75;100.00
15308;BME280;7755;52.208;6.964;2023-06-22T18:12:54;100921.34;;;20.50;100.00
15308;BME280;7755;52.208;6.964;2023-06-22T18:16:59;100916.34;;;20.33;100.00
15308;BME280;7755;52.208;6.964;2023-06-22T18:21:04;100915.63;;;20.08;100.00
15308;BME280;7755;52.208;6.964;2023-06-22T18:25:08;100917.09;;;19.82;100.00
15308;BME280;7755;52.208;6.964;2023-06-22T18:29:11;100934.09;;;19.70;100.00
15308;BME280;7755;52.208;6.964;2023-06-22T18:33:14;100934.56;;;19.53;100.00
15308;BME280;7755;52.208;6.964;2023-06-22T18:37:19;100947.78;;;19.32;100.00
15308;BME280;7755;52.208;6.964;2023-06-22T18:41:24;100944.28;;;19.22;100.00
15308;BME280;7755;52.208;6.964;2023-06-22T18:45:28;100936.41;;;19.10;100.00
15308;BME280;7755;52.208;6.964;2023-06-22T18:49:33;100923.63;;;18.95;100.00
15308;BME280;7755;52.208;6.964;2023-06-22T18:53:42;100930.13;;;18.80;100.00
15308;BME280;7755;52.208;6.964;2023-06-22T18:57:44;100921.38;;;18.73;100.00
15308;BME280;7755;52.208;6.964;2023-06-22T19:01:47;100929.75;;;18.58;100.00
15308;BME280;7755;52.208;6.964;2023-06-22T19:05:51;100933.16;;;18.45;100.00
15308;BME280;7755;52.208;6.964;2023-06-22T19:10:22;100942.03;;;18.37;100.00
15308;BME280;7755;52.208;6.964;2023-06-22T19:14:25;100946.28;;;18.19;100.00
15308;BME280;7755;52.208;6.964;2023-06-22T19:18:32;100955.06;;;18.21;100.00
15308;BME280;7755;52.208;6.964;2023-06-22T19:22:53;100968.03;;;18.15;100.00
15308;BME280;7755;52.208;6.964;2023-06-22T19:26:58;100961.19;;;18.08;100.00
15308;BME280;7755;52.208;6.964;2023-06-22T19:31:03;100960.13;;;18.09;100.00
15308;BME280;7755;52.208;6.964;2023-06-22T19:35:08;100973.63;;;18.00;100.00
15308;BME280;7755;52.208;6.964;2023-06-22T19:39:12;100976.72;;;17.88;100.00
15308;BME280;7755;52.208;6.964;2023-06-22T19:43:17;100975.94;;;17.83;100.00
15308;BME280;7755;52.208;6.964;2023-06-22T19:47:20;100972.34;;;17.82;100.00
15308;BME280;7755;52.208;6.964;2023-06-22T19:51:23;100987.47;;;17.80;100.00
15308;BME280;7755;52.208;6.964;2023-06-22T19:55:26;100988.28;;;17.85;100.00
15308;BME280;7755;52.208;6.964;2023-06-22T19:59:31;100999.56;;;17.84;100.00
15308;BME280;7755;52.208;6.964;2023-06-22T20:03:37;100998.50;;;17.69;100.00
15308;BME280;7755;52.208;6.964;2023-06-22T20:07:42;101001.81;;;17.66;100.00
15308;BME280;7755;52.208;6.964;2023-06-22T20:11:45;101007.88;;;17.63;100.00
15308;BME280;7755;52.208;6.964;2023-06-22T20:15:49;101001.28;;;17.59;100.00
15308;BME280;7755;52.208;6.964;2023-06-22T20:19:53;101001.03;;;17.51;100.00
15308;BME280;7755;52.208;6.964;2023-06-22T20:24:02;100989.22;;;17.45;100.00
15308;BME280;7755;52.208;6.964;2023-06-22T20:28:08;100984.31;;;17.42;100.00
15308;BME280;7755;52.208;6.964;2023-06-22T20:32:13;100978.81;;;17.42;100.00
15308;BME280;7755;52.208;6.964;2023-06-22T20:36:16;101001.06;;;17.40;100.00
15308;BME280;7755;52.208;6.964;2023-06-22T20:40:20;100993.66;;;17.31;100.00
15308;BME280;7755;52.208;6.964;2023-06-22T20:44:28;100990.34;;;17.34;100.00
15308;BME280;7755;52.208;6.964;2023-06-22T20:48:32;101005.19;;;17.33;100.00
15308;BME280;7755;52.208;6.964;2023-06-22T20:52:40;101010.72;;;17.28;100.00
15308;BME280;7755;52.208;6.964;2023-06-22T20:56:43;101006.34;;;17.16;100.00
15308;BME280;7755;52.208;6.964;2023-06-22T21:00:46;101010.19;;;17.10;100.00
15308;BME280;7755;52.208;6.964;2023-06-22T21:04:51;101009.09;;;17.06;100.00
15308;BME280;7755;52.208;6.964;2023-06-22T21:08:56;101008.53;;;17.09;100.00
15308;BME280;7755;52.208;6.964;2023-06-22T21:12:59;101015.41;;;17.02;100.00
15308;BME280;7755;52.208;6.964;2023-06-22T21:17:03;101031.91;;;16.97;100.00
15308;BME280;7755;52.208;6.964;2023-06-22T21:21:07;101040.13;;;16.97;100.00
15308;BME280;7755;52.208;6.964;2023-06-22T21:25:11;101028.88;;;16.93;100.00
15308;BME280;7755;52.208;6.964;2023-06-22T21:29:14;101040.69;;;16.99;100.00